createdAt,value
2022-10-07T00:02:26.637Z,8.96
2022-10-07T00:04:53.878Z,8.95
2022-10-07T00:07:21.095Z,8.93
2022-10-07T00:09:48.264Z,8.93
2022-10-07T00:12:15.494Z,8.91
2022-10-07T00:14:42.785Z,8.98
2022-10-07T00:17:10.651Z,9.04
2022-10-07T00:19:37.905Z,9.08
2022-10-07T00:22:05.167Z,9.12
2022-10-07T00:24:32.388Z,9.15
2022-10-07T00:26:59.609Z,9.15
2022-10-07T00:29:26.816Z,9.14
2022-10-07T00:31:57.209Z,9.17
2022-10-07T00:34:25.335Z,9.16
2022-10-07T00:36:52.450Z,9.13
2022-10-07T00:39:19.660Z,9.15
2022-10-07T00:41:50.447Z,9.14
2022-10-07T00:44:26.738Z,9.13
2022-10-07T00:46:55.355Z,9.12
2022-10-07T00:49:22.630Z,9.08
2022-10-07T00:51:52.629Z,9.04
2022-10-07T00:54:20.740Z,9.01
2022-10-07T00:56:49.799Z,9.06
2022-10-07T00:59:18.389Z,9.04
2022-10-07T01:01:46.469Z,9.05
2022-10-07T01:04:14.912Z,9.06
2022-10-07T01:06:43.051Z,9.01
2022-10-07T01:09:10.880Z,8.98
2022-10-07T01:11:39.949Z,9.02
2022-10-07T01:14:13.195Z,9.06
2022-10-07T01:16:40.335Z,9.03
2022-10-07T01:19:28.338Z,8.99
2022-10-07T01:22:08.242Z,9.02
2022-10-07T01:24:47.670Z,8.97
2022-10-07T01:27:20.340Z,8.98
2022-10-07T01:29:56.128Z,8.98
2022-10-07T01:32:27.159Z,8.99
2022-10-07T01:34:55.846Z,8.99
2022-10-07T01:37:24.852Z,8.98
2022-10-07T01:39:54.898Z,8.94
2022-10-07T01:42:22.831Z,8.94
2022-10-07T01:44:53.070Z,8.90
2022-10-07T01:47:20.329Z,8.88
2022-10-07T01:49:48.577Z,8.88
2022-10-07T01:52:43.405Z,8.82
2022-10-07T01:55:29.702Z,8.79
2022-10-07T01:58:08.955Z,8.80
2022-10-07T02:00:41.504Z,8.75
2022-10-07T02:03:24.958Z,8.75
2022-10-07T02:06:01.448Z,8.83
2022-10-07T02:08:37.771Z,8.83
2022-10-07T02:11:10.884Z,8.85
2022-10-07T02:13:46.711Z,8.90
2022-10-07T02:16:19.969Z,8.92
2022-10-07T02:18:50.174Z,8.86
2022-10-07T02:21:20.800Z,8.85
2022-10-07T02:23:49.617Z,8.84
2022-10-07T02:26:19.477Z,8.84
2022-10-07T02:28:48.696Z,8.83
2022-10-07T02:31:17.877Z,8.80
2022-10-07T02:33:47.092Z,8.78
2022-10-07T02:36:17.983Z,8.74
2022-10-07T02:38:45.256Z,8.72
2022-10-07T02:41:14.890Z,8.72
2022-10-07T02:43:41.915Z,8.70
2022-10-07T02:46:11.925Z,8.72
2022-10-07T02:49:00.603Z,8.72
2022-10-07T02:51:33.950Z,8.71
2022-10-07T02:54:02.976Z,8.75
2022-10-07T02:56:32.565Z,8.83
2022-10-07T02:59:04.345Z,8.81
2022-10-07T03:01:35.413Z,8.81
2022-10-07T03:04:02.830Z,8.82
2022-10-07T03:06:31.271Z,8.78
2022-10-07T03:09:01.578Z,8.78
2022-10-07T03:11:28.675Z,8.79
2022-10-07T03:13:55.733Z,8.81
2022-10-07T03:16:23.020Z,8.83
2022-10-07T03:18:51.777Z,8.85
2022-10-07T03:21:25.236Z,8.84
2022-10-07T03:23:55.017Z,8.86
2022-10-07T03:26:26.186Z,8.85
2022-10-07T03:28:54.183Z,8.87
2022-10-07T03:31:21.963Z,8.85
2022-10-07T03:33:52.010Z,8.80
2022-10-07T03:36:20.389Z,8.78
2022-10-07T03:38:48.216Z,8.74
2022-10-07T03:41:15.912Z,8.70
2022-10-07T03:43:43.666Z,8.65
2022-10-07T03:46:13.282Z,8.62
2022-10-07T03:48:41.217Z,8.66
2022-10-07T03:51:08.307Z,8.62
2022-10-07T03:53:40.575Z,8.59
2022-10-07T03:56:07.783Z,8.58
2022-10-07T03:58:36.274Z,8.57
2022-10-07T04:01:12.503Z,8.62
2022-10-07T04:03:46.223Z,8.64
2022-10-07T04:06:13.779Z,8.63
2022-10-07T04:08:41.275Z,8.62
2022-10-07T04:11:09.153Z,8.63
2022-10-07T04:13:40.114Z,8.63
2022-10-07T04:16:08.740Z,8.63
2022-10-07T04:18:36.712Z,8.67
2022-10-07T04:21:04.236Z,8.66
2022-10-07T04:23:33.845Z,8.69
2022-10-07T04:26:00.913Z,8.70
2022-10-07T04:28:28.743Z,8.71
2022-10-07T04:31:06.277Z,8.74
2022-10-07T04:33:41.045Z,8.77
2022-10-07T04:36:09.834Z,8.78
2022-10-07T04:38:50.274Z,8.80
2022-10-07T04:41:19.273Z,8.82
2022-10-07T04:43:51.525Z,8.81
2022-10-07T04:46:22.408Z,8.80
2022-10-07T04:48:54.761Z,8.79
2022-10-07T04:51:24.925Z,8.79
2022-10-07T04:53:57.110Z,8.79
2022-10-07T04:56:31.333Z,8.82
2022-10-07T04:58:59.100Z,8.82
2022-10-07T05:01:26.603Z,8.84
2022-10-07T05:03:54.772Z,8.85
2022-10-07T05:06:21.911Z,8.84
2022-10-07T05:08:49.883Z,8.85
2022-10-07T05:11:17.012Z,8.86
2022-10-07T05:13:52.470Z,8.87
2022-10-07T05:16:20.902Z,8.86
2022-10-07T05:18:48.090Z,8.87
2022-10-07T05:21:16.480Z,8.88
2022-10-07T05:23:46.396Z,8.88
2022-10-07T05:26:17.667Z,8.87
2022-10-07T05:28:49.843Z,8.87
2022-10-07T05:31:22.873Z,8.86
2022-10-07T05:33:54.127Z,8.89
2022-10-07T05:36:23.981Z,8.91
2022-10-07T05:38:58.202Z,8.92
2022-10-07T05:41:31.006Z,8.94
2022-10-07T05:44:01.231Z,8.95
2022-10-07T05:46:28.639Z,8.95
2022-10-07T05:48:58.103Z,8.96
2022-10-07T05:51:30.392Z,8.98
2022-10-07T05:53:59.068Z,9.02
2022-10-07T05:56:32.518Z,9.03
2022-10-07T05:58:59.640Z,9.06
2022-10-07T06:01:29.578Z,9.08
2022-10-07T06:03:59.677Z,9.08
2022-10-07T06:06:30.209Z,9.09
2022-10-07T06:09:20.351Z,9.09
2022-10-07T06:12:06.965Z,9.12
2022-10-07T06:14:36.370Z,9.15
2022-10-07T06:17:05.159Z,9.16
2022-10-07T06:19:32.640Z,9.18
2022-10-07T06:22:02.488Z,9.19
2022-10-07T06:24:29.805Z,9.19
2022-10-07T06:26:56.815Z,9.24
2022-10-07T06:29:24.666Z,9.26
2022-10-07T06:31:51.792Z,9.26
2022-10-07T06:34:19.341Z,9.27
2022-10-07T06:36:46.729Z,9.32
2022-10-07T06:39:16.194Z,9.36
2022-10-07T06:41:43.970Z,9.38
2022-10-07T06:44:38.453Z,9.40
2022-10-07T06:47:11.659Z,9.41
2022-10-07T06:49:40.740Z,9.44
2022-10-07T06:52:07.768Z,9.46
2022-10-07T06:54:35.886Z,9.49
2022-10-07T06:57:15.424Z,9.54
2022-10-07T06:59:50.179Z,9.56
2022-10-07T07:02:18.250Z,9.60
2022-10-07T07:04:45.900Z,9.62
2022-10-07T07:07:13.069Z,9.65
2022-10-07T07:09:40.343Z,9.69
2022-10-07T07:12:09.568Z,9.71
2022-10-07T07:14:40.688Z,9.76
2022-10-07T07:17:12.754Z,9.80
2022-10-07T07:19:39.797Z,9.84
2022-10-07T07:22:07.529Z,9.86
2022-10-07T07:24:34.996Z,9.88
2022-10-07T07:27:02.477Z,9.90
2022-10-07T07:29:30.823Z,9.94
2022-10-07T07:32:00.196Z,9.94
2022-10-07T07:34:30.296Z,9.95
2022-10-07T07:36:57.686Z,9.97
2022-10-07T07:39:30.258Z,9.99
2022-10-07T07:42:04.143Z,10.04
2022-10-07T07:44:34.775Z,10.08
2022-10-07T07:47:03.817Z,10.06
2022-10-07T07:49:32.263Z,10.09
2022-10-07T07:51:59.995Z,10.11
2022-10-07T07:54:31.543Z,10.15
2022-10-07T07:56:58.616Z,10.16
2022-10-07T07:59:29.467Z,10.22
2022-10-07T08:01:58.065Z,10.27
2022-10-07T08:04:25.548Z,10.31
2022-10-07T08:06:53.094Z,10.33
2022-10-07T08:09:20.397Z,10.37
2022-10-07T08:11:48.698Z,10.39
2022-10-07T08:14:17.547Z,10.39
2022-10-07T08:16:47.394Z,10.44
2022-10-07T08:19:15.462Z,10.46
2022-10-07T08:21:42.793Z,10.50
2022-10-07T08:24:15.076Z,10.53
2022-10-07T08:26:42.404Z,10.55
2022-10-07T08:29:13.238Z,10.57
2022-10-07T08:31:42.482Z,10.60
2022-10-07T08:34:10.688Z,10.67
2022-10-07T08:36:38.113Z,10.74
2022-10-07T08:39:05.599Z,10.81
2022-10-07T08:41:41.175Z,10.84
2022-10-07T08:44:17.686Z,10.87
2022-10-07T08:46:54.882Z,10.91
2022-10-07T08:49:26.264Z,10.98
2022-10-07T08:52:05.751Z,11.00
2022-10-07T08:54:33.474Z,11.02
2022-10-07T08:57:09.396Z,11.11
2022-10-07T08:59:41.548Z,11.17
2022-10-07T09:02:20.776Z,11.24
2022-10-07T09:05:06.674Z,11.32
2022-10-07T09:07:40.320Z,11.39
2022-10-07T09:10:10.471Z,11.46
2022-10-07T09:12:54.055Z,11.53
2022-10-07T09:15:28.568Z,11.60
2022-10-07T09:17:59.370Z,11.63
2022-10-07T09:20:31.699Z,11.66
2022-10-07T09:22:58.929Z,11.73
2022-10-07T09:25:27.461Z,11.79
2022-10-07T09:27:54.717Z,11.84
2022-10-07T09:30:22.930Z,11.90
2022-10-07T09:32:54.341Z,11.98
2022-10-07T09:35:26.453Z,12.03
2022-10-07T09:37:56.640Z,12.06
2022-10-07T09:40:58.413Z,12.14
2022-10-07T09:43:26.091Z,12.21
2022-10-07T09:45:53.247Z,12.26
2022-10-07T09:48:22.165Z,12.34
2022-10-07T09:50:49.804Z,12.46
2022-10-07T09:53:19.168Z,12.54
2022-10-07T09:55:46.472Z,12.57
2022-10-07T09:58:19.358Z,12.65
2022-10-07T10:00:47.999Z,12.74
2022-10-07T10:03:15.533Z,12.79
2022-10-07T10:05:57.806Z,12.90
2022-10-07T10:08:29.493Z,12.94
2022-10-07T10:10:57.793Z,13.00
2022-10-07T10:13:31.109Z,13.06
2022-10-07T10:15:59.121Z,13.12
2022-10-07T10:18:31.096Z,13.13
2022-10-07T10:21:19.854Z,13.22
2022-10-07T10:23:48.667Z,13.31
2022-10-07T10:26:31.147Z,13.37
2022-10-07T10:29:00.931Z,13.47
2022-10-07T10:31:46.946Z,13.53
2022-10-07T10:34:17.352Z,13.56
2022-10-07T10:36:46.989Z,13.66
2022-10-07T10:39:33.154Z,13.75
2022-10-07T10:42:05.075Z,13.77
2022-10-07T10:44:37.926Z,13.98
2022-10-07T10:47:25.578Z,14.21
2022-10-07T10:49:55.567Z,14.51
2022-10-07T10:52:22.629Z,14.63
2022-10-07T10:55:08.529Z,14.68
2022-10-07T10:57:35.539Z,14.78
2022-10-07T11:00:13.046Z,14.92
2022-10-07T11:02:40.750Z,14.90
2022-10-07T11:05:21.751Z,14.84
2022-10-07T11:07:55.859Z,14.78
2022-10-07T11:10:24.572Z,14.82
2022-10-07T11:13:10.479Z,14.87
2022-10-07T11:15:44.212Z,14.94
2022-10-07T11:18:15.381Z,14.98
2022-10-07T11:20:48.028Z,15.03
2022-10-07T11:23:18.150Z,15.05
2022-10-07T11:26:11.330Z,15.05
2022-10-07T11:28:41.780Z,15.09
2022-10-07T11:31:12.013Z,15.21
2022-10-07T11:33:45.021Z,15.22
2022-10-07T11:36:18.292Z,15.31
2022-10-07T11:38:45.577Z,15.38
2022-10-07T11:41:12.734Z,15.51
2022-10-07T11:43:42.518Z,15.47
2022-10-07T11:46:14.925Z,15.49
2022-10-07T11:48:49.102Z,15.58
2022-10-07T11:51:22.479Z,15.62
2022-10-07T11:53:52.257Z,15.54
2022-10-07T11:56:22.949Z,15.50
2022-10-07T11:58:58.295Z,15.49
2022-10-07T12:01:26.012Z,15.53
2022-10-07T12:03:54.452Z,15.48
2022-10-07T12:06:21.491Z,15.56
2022-10-07T12:08:48.682Z,15.53
2022-10-07T12:11:15.686Z,15.54
2022-10-07T12:13:52.447Z,15.58
2022-10-07T12:16:30.258Z,15.73
2022-10-07T12:19:06.326Z,15.83
2022-10-07T12:21:52.120Z,15.90
2022-10-07T12:24:19.168Z,15.76
2022-10-07T12:26:47.079Z,15.77
2022-10-07T12:29:25.918Z,15.68
2022-10-07T12:31:53.050Z,15.65
2022-10-07T12:34:27.968Z,15.67
2022-10-07T12:37:15.072Z,15.76
2022-10-07T12:39:42.466Z,15.77
2022-10-07T12:42:12.579Z,15.84
2022-10-07T12:44:43.788Z,15.94
2022-10-07T12:47:21.284Z,15.96
2022-10-07T12:49:49.959Z,15.89
2022-10-07T12:52:21.096Z,15.89
2022-10-07T12:54:53.689Z,16.03
2022-10-07T12:57:23.232Z,16.10
2022-10-07T13:00:07.857Z,16.24
2022-10-07T13:02:50.225Z,16.28
2022-10-07T13:05:36.210Z,16.28
2022-10-07T13:08:21.785Z,16.14
2022-10-07T13:11:00.766Z,16.11
2022-10-07T13:13:31.318Z,16.12
2022-10-07T13:16:02.609Z,16.17
2022-10-07T13:18:56.076Z,16.20
2022-10-07T13:21:27.344Z,16.27
2022-10-07T13:23:55.460Z,16.33
2022-10-07T13:26:24.015Z,16.29
2022-10-07T13:28:58.562Z,16.25
2022-10-07T13:31:27.148Z,16.24
2022-10-07T13:33:55.224Z,16.31
2022-10-07T13:36:24.524Z,16.30
2022-10-07T13:38:53.784Z,16.26
2022-10-07T13:41:28.810Z,16.28
2022-10-07T13:44:00.163Z,16.25
2022-10-07T13:46:28.825Z,16.26
2022-10-07T13:48:56.883Z,16.31
2022-10-07T13:51:28.740Z,16.15
2022-10-07T13:53:58.215Z,16.10
2022-10-07T13:56:31.864Z,16.05
2022-10-07T13:58:59.673Z,16.11
2022-10-07T14:01:30.551Z,16.08
2022-10-07T14:04:00.715Z,16.06
2022-10-07T14:06:36.876Z,16.01
2022-10-07T14:09:04.003Z,16.13
2022-10-07T14:11:31.143Z,16.02
2022-10-07T14:13:59.476Z,15.99
2022-10-07T14:16:27.087Z,16.03
2022-10-07T14:18:54.311Z,16.04
2022-10-07T14:21:21.437Z,16.05
2022-10-07T14:23:48.505Z,16.02
2022-10-07T14:26:17.583Z,16.02
2022-10-07T14:28:44.974Z,16.07
2022-10-07T14:31:33.786Z,16.04
2022-10-07T14:34:19.713Z,16.00
2022-10-07T14:37:03.846Z,16.05
2022-10-07T14:39:32.500Z,16.00
2022-10-07T14:41:59.656Z,16.08
2022-10-07T14:44:26.744Z,16.09
2022-10-07T14:47:04.248Z,16.08
2022-10-07T14:49:31.667Z,16.08
2022-10-07T14:51:59.493Z,15.94
2022-10-07T14:54:26.749Z,15.92
2022-10-07T14:56:53.792Z,15.86
2022-10-07T14:59:20.880Z,15.86
2022-10-07T15:01:49.554Z,15.88
2022-10-07T15:04:16.857Z,15.90
2022-10-07T15:06:48.712Z,15.82
2022-10-07T15:09:18.320Z,15.75
2022-10-07T15:11:45.397Z,15.82
2022-10-07T15:14:12.498Z,15.80
2022-10-07T15:16:40.214Z,15.71
2022-10-07T15:19:07.782Z,15.72
2022-10-07T15:21:34.855Z,15.70
2022-10-07T15:24:02.082Z,15.69
2022-10-07T15:26:29.588Z,15.71
2022-10-07T15:28:57.241Z,15.75
2022-10-07T15:31:26.095Z,15.73
2022-10-07T15:33:56.975Z,15.68
2022-10-07T15:36:25.176Z,15.67
2022-10-07T15:38:52.294Z,15.66
2022-10-07T15:41:29.430Z,15.66
2022-10-07T15:43:59.985Z,15.64
2022-10-07T15:46:27.936Z,15.57
2022-10-07T15:48:56.083Z,15.57
2022-10-07T15:51:26.947Z,15.51
2022-10-07T15:53:54.266Z,15.47
2022-10-07T15:56:21.368Z,15.45
2022-10-07T15:58:48.411Z,15.42
2022-10-07T16:01:15.629Z,15.37
2022-10-07T16:03:44.120Z,15.32
2022-10-07T16:06:14.293Z,15.29
2022-10-07T16:08:41.553Z,15.24
2022-10-07T16:11:10.271Z,15.20
2022-10-07T16:13:38.452Z,15.15
2022-10-07T16:16:07.395Z,15.11
2022-10-07T16:18:38.529Z,15.07
2022-10-07T16:21:06.107Z,15.02
2022-10-07T16:23:34.082Z,14.95
2022-10-07T16:26:08.138Z,14.90
2022-10-07T16:28:56.986Z,14.82
2022-10-07T16:31:24.466Z,14.77
2022-10-07T16:33:52.415Z,14.72
2022-10-07T16:36:20.725Z,14.68
2022-10-07T16:38:48.106Z,14.63
2022-10-07T16:41:15.285Z,14.58
2022-10-07T16:43:42.560Z,14.45
2022-10-07T16:46:12.170Z,14.43
2022-10-07T16:48:40.224Z,14.40
2022-10-07T16:51:39.564Z,14.34
2022-10-07T16:54:12.623Z,14.36
2022-10-07T16:56:48.276Z,14.33
2022-10-07T16:59:22.608Z,14.32
2022-10-07T17:01:51.468Z,14.32
2022-10-07T17:04:18.646Z,14.25
2022-10-07T17:06:46.207Z,14.24
2022-10-07T17:09:13.781Z,14.22
2022-10-07T17:11:41.051Z,14.18
2022-10-07T17:14:09.597Z,14.16
2022-10-07T17:16:42.258Z,14.13
2022-10-07T17:19:12.005Z,14.11
2022-10-07T17:21:40.893Z,14.07
2022-10-07T17:24:08.571Z,14.05
2022-10-07T17:26:37.490Z,14.03
2022-10-07T17:29:07.531Z,13.99
2022-10-07T17:31:35.899Z,13.98
2022-10-07T17:34:05.927Z,13.96
2022-10-07T17:36:33.470Z,13.93
2022-10-07T17:39:00.953Z,13.91
2022-10-07T17:41:29.458Z,13.87
2022-10-07T17:43:58.225Z,13.84
2022-10-07T17:46:26.673Z,13.83
2022-10-07T17:48:55.023Z,13.80
2022-10-07T17:51:22.686Z,13.76
2022-10-07T17:53:51.009Z,13.72
2022-10-07T17:56:18.326Z,13.71
2022-10-07T17:58:46.939Z,13.69
2022-10-07T18:01:23.898Z,13.67
2022-10-07T18:03:52.395Z,13.66
2022-10-07T18:06:19.922Z,13.64
2022-10-07T18:08:48.106Z,13.62
2022-10-07T18:11:18.201Z,13.61
2022-10-07T18:14:03.680Z,13.58
2022-10-07T18:16:31.692Z,13.55
2022-10-07T18:18:58.841Z,13.54
2022-10-07T18:21:26.023Z,13.53
2022-10-07T18:23:55.624Z,13.49
2022-10-07T18:26:23.037Z,13.45
2022-10-07T18:28:50.281Z,13.42
2022-10-07T18:31:17.795Z,13.39
2022-10-07T18:33:46.113Z,13.37
2022-10-07T18:36:14.762Z,13.34
2022-10-07T18:38:42.392Z,13.31
2022-10-07T18:41:10.893Z,13.25
2022-10-07T18:43:38.759Z,13.18
2022-10-07T18:46:07.416Z,13.13
2022-10-07T18:48:35.677Z,13.10
2022-10-07T18:51:02.972Z,13.10
2022-10-07T18:53:31.419Z,13.11
2022-10-07T18:56:06.826Z,13.12
2022-10-07T18:58:38.436Z,13.10
2022-10-07T19:01:08.450Z,13.08
2022-10-07T19:03:35.519Z,13.07
2022-10-07T19:06:07.837Z,13.06
2022-10-07T19:08:35.003Z,13.03
2022-10-07T19:11:05.772Z,13.00
2022-10-07T19:13:48.835Z,12.96
2022-10-07T19:16:17.476Z,12.90
2022-10-07T19:18:44.955Z,12.87
2022-10-07T19:21:12.486Z,12.85
2022-10-07T19:23:40.523Z,12.81
2022-10-07T19:26:08.267Z,12.79
2022-10-07T19:28:36.640Z,12.75
2022-10-07T19:31:16.092Z,12.73
2022-10-07T19:33:44.220Z,12.72
2022-10-07T19:36:12.608Z,12.70
2022-10-07T19:38:43.170Z,12.69
2022-10-07T19:41:11.876Z,12.68
2022-10-07T19:43:39.727Z,12.67
2022-10-07T19:46:09.194Z,12.64
2022-10-07T19:48:36.763Z,12.61
2022-10-07T19:51:05.924Z,12.60
2022-10-07T19:53:36.523Z,12.52
2022-10-07T19:56:06.068Z,12.51
2022-10-07T19:58:33.120Z,12.48
2022-10-07T20:01:07.473Z,12.46
2022-10-07T20:03:34.892Z,12.45
2022-10-07T20:06:06.208Z,12.41
2022-10-07T20:08:34.300Z,12.41
2022-10-07T20:11:02.094Z,12.38
2022-10-07T20:13:30.268Z,12.35
2022-10-07T20:16:05.164Z,12.33
2022-10-07T20:18:33.042Z,12.29
2022-10-07T20:21:01.236Z,12.24
2022-10-07T20:23:31.732Z,12.20
2022-10-07T20:25:58.920Z,12.16
2022-10-07T20:28:26.014Z,12.15
2022-10-07T20:30:53.176Z,12.15
2022-10-07T20:33:20.221Z,12.12
2022-10-07T20:35:47.302Z,12.13
2022-10-07T20:38:14.362Z,12.11
2022-10-07T20:41:00.047Z,12.10
2022-10-07T20:43:27.086Z,12.08
2022-10-07T20:45:57.559Z,12.05
2022-10-07T20:48:25.350Z,12.03
2022-10-07T20:50:53.803Z,12.00
2022-10-07T20:53:21.000Z,12.00
2022-10-07T20:55:48.052Z,11.99
2022-10-07T20:58:15.229Z,11.93
2022-10-07T21:00:42.277Z,11.90
2022-10-07T21:03:09.374Z,11.89
2022-10-07T21:05:38.385Z,11.87
2022-10-07T21:08:06.657Z,11.84
2022-10-07T21:10:33.644Z,11.84
2022-10-07T21:13:01.867Z,11.80
2022-10-07T21:15:29.489Z,11.77
2022-10-07T21:17:57.168Z,11.73
2022-10-07T21:20:24.332Z,11.67
2022-10-07T21:22:54.211Z,11.63
2022-10-07T21:25:21.345Z,11.58
2022-10-07T21:27:48.456Z,11.53
2022-10-07T21:30:15.587Z,11.48
2022-10-07T21:32:42.652Z,11.48
2022-10-07T21:35:09.741Z,11.46
2022-10-07T21:37:36.815Z,11.43
2022-10-07T21:40:03.956Z,11.38
2022-10-07T21:42:31.239Z,11.29
2022-10-07T21:44:58.435Z,11.24
2022-10-07T21:47:25.933Z,11.22
2022-10-07T21:49:52.977Z,11.16
2022-10-07T21:52:20.034Z,11.16
2022-10-07T21:54:47.162Z,11.16
2022-10-07T21:57:14.190Z,11.18
2022-10-07T21:59:41.214Z,11.20
2022-10-07T22:02:08.456Z,11.21
2022-10-07T22:04:35.565Z,11.15
2022-10-07T22:07:21.359Z,11.09
2022-10-07T22:09:48.409Z,10.99
2022-10-07T22:12:15.456Z,10.93
2022-10-07T22:14:42.473Z,10.91
2022-10-07T22:17:09.975Z,10.91
2022-10-07T22:19:37.008Z,10.93
2022-10-07T22:22:04.549Z,10.93
2022-10-07T22:24:31.603Z,10.94
2022-10-07T22:27:00.080Z,10.96
2022-10-07T22:29:27.177Z,10.93
2022-10-07T22:31:54.292Z,10.91
2022-10-07T22:34:42.094Z,10.89
2022-10-07T22:37:09.380Z,10.83
2022-10-07T22:39:36.505Z,10.79
2022-10-07T22:42:03.893Z,10.77
2022-10-07T22:44:31.580Z,10.69
2022-10-07T22:47:02.405Z,10.61
2022-10-07T22:49:30.411Z,10.58
2022-10-07T22:51:59.531Z,10.58
2022-10-07T22:54:27.332Z,10.56
2022-10-07T22:56:54.597Z,10.51
2022-10-07T22:59:21.657Z,10.48
2022-10-07T23:01:48.757Z,10.48
2022-10-07T23:04:15.834Z,10.45
2022-10-07T23:06:42.913Z,10.45
2022-10-07T23:09:10.060Z,10.44
2022-10-07T23:11:37.089Z,10.45
2022-10-07T23:14:05.335Z,10.49
2022-10-07T23:16:34.082Z,10.50
2022-10-07T23:19:01.189Z,10.52
2022-10-07T23:21:29.681Z,10.48
2022-10-07T23:24:05.923Z,10.44
2022-10-07T23:26:34.818Z,10.41
2022-10-07T23:29:02.441Z,10.43
2022-10-07T23:31:31.527Z,10.39
2022-10-07T23:33:59.266Z,10.39
2022-10-07T23:36:26.820Z,10.39
2022-10-07T23:38:53.871Z,10.40
2022-10-07T23:41:22.360Z,10.37
2022-10-07T23:43:50.505Z,10.32
2022-10-07T23:46:18.770Z,10.27
2022-10-07T23:48:46.979Z,10.15
2022-10-07T23:51:15.434Z,10.10
2022-10-07T23:53:42.602Z,10.06
2022-10-07T23:56:09.680Z,10.12
2022-10-07T23:58:36.889Z,10.11
